createdAt,value
2019-04-21T00:00:54.164Z,1.40
2019-04-21T00:15:58.948Z,1.63
2019-04-21T00:31:15.322Z,1.35
2019-04-21T00:46:12.302Z,1.13
2019-04-21T01:01:32.926Z,1.18
2019-04-21T01:16:39.604Z,1.17
2019-04-21T01:31:36.496Z,1.25
2019-04-21T01:46:39.489Z,1.79
2019-04-21T02:01:47.193Z,2.03
2019-04-21T02:16:54.182Z,2.20
2019-04-21T02:47:16.769Z,2.82
2019-04-21T03:02:39.085Z,3.07
2019-04-21T03:33:16.564Z,2.13
2019-04-21T04:18:39.338Z,1.45
2019-04-21T04:33:48.527Z,4.04
2019-04-21T04:48:59.403Z,7.59
2019-04-21T05:04:00.501Z,10.38
2019-04-21T05:19:16.365Z,12.03
2019-04-21T05:34:03.026Z,13.33
2019-04-21T05:49:10.575Z,14.27
2019-04-21T06:04:34.389Z,13.89
2019-04-21T06:19:35.162Z,15.62
2019-04-21T06:34:45.589Z,16.69
2019-04-21T06:49:32.696Z,17.12
2019-04-21T07:20:03.821Z,20.70
2019-04-21T07:34:48.049Z,21.56
2019-04-21T07:49:59.188Z,23.33
2019-04-21T08:05:07.847Z,22.82
2019-04-21T08:20:09.233Z,24.13
2019-04-21T08:35:34.375Z,21.70
2019-04-21T08:50:15.348Z,22.88
2019-04-21T09:05:27.746Z,23.55
2019-04-21T09:20:26.563Z,25.36
2019-04-21T09:35:16.939Z,24.80
2019-04-21T09:50:19.913Z,23.01
2019-04-21T10:05:25.761Z,24.12
2019-04-21T10:20:30.795Z,20.35
2019-04-21T10:35:37.055Z,23.93
2019-04-21T10:50:41.148Z,24.14
2019-04-21T11:05:44.999Z,23.17
2019-04-21T11:20:48.876Z,19.58
2019-04-21T11:35:53.178Z,20.16
2019-04-21T11:50:57.298Z,21.56
2019-04-21T12:06:01.598Z,21.78
2019-04-21T12:21:09.389Z,22.06
2019-04-21T12:36:14.253Z,22.15
2019-04-21T12:51:19.512Z,21.56
2019-04-21T13:06:23.518Z,22.19
2019-04-21T13:21:26.189Z,21.95
2019-04-21T13:36:30.083Z,20.27
2019-04-21T13:51:34.114Z,20.87
2019-04-21T14:06:38.287Z,20.44
2019-04-21T14:21:41.325Z,19.84
2019-04-21T14:36:44.612Z,19.66
2019-04-21T14:51:50.065Z,18.52
2019-04-21T15:06:55.046Z,17.56
2019-04-21T15:21:58.731Z,18.13
2019-04-21T15:37:02.278Z,17.49
2019-04-21T15:52:04.832Z,16.67
2019-04-21T16:07:07.796Z,16.14
2019-04-21T16:22:10.842Z,15.69
2019-04-21T16:37:13.906Z,14.71
2019-04-21T16:52:20.387Z,13.58
2019-04-21T17:07:24.134Z,12.39
2019-04-21T17:22:28.108Z,11.93
2019-04-21T17:37:34.495Z,11.59
2019-04-21T17:52:45.931Z,11.39
2019-04-21T18:08:11.416Z,11.21
2019-04-21T18:22:59.066Z,11.09
2019-04-21T18:38:15.779Z,10.96
2019-04-21T19:09:08.654Z,10.43
2019-04-21T19:24:17.850Z,11.10
2019-04-21T19:39:06.509Z,11.22
2019-04-21T19:54:15.472Z,11.10
2019-04-21T20:09:28.342Z,10.44
2019-04-21T20:24:17.621Z,10.05
2019-04-21T20:39:23.253Z,8.40
2019-04-21T20:54:43.709Z,7.96
2019-04-21T21:09:52.366Z,7.83
2019-04-21T21:24:53.421Z,7.31
2019-04-21T21:40:03.648Z,6.94
2019-04-21T21:54:51.882Z,6.22
2019-04-21T22:09:58.018Z,5.96
2019-04-21T22:25:10.047Z,5.66
2019-04-21T22:40:16.666Z,5.60
2019-04-21T22:55:19.333Z,5.74
2019-04-21T23:10:19.613Z,5.39
2019-04-21T23:25:41.687Z,5.05
2019-04-21T23:40:31.488Z,4.80
2019-04-21T23:55:35.036Z,4.83
